createdAt,value
2018-09-06T00:01:26.459Z,100211.03
2018-09-06T00:03:56.226Z,100214.27
2018-09-06T00:06:26.145Z,100210.13
2018-09-06T00:08:56.528Z,100211.15
2018-09-06T00:11:26.289Z,100212.87
2018-09-06T00:13:56.245Z,100209.72
2018-09-06T00:16:26.162Z,100208.44
2018-09-06T00:18:56.045Z,100205.97
2018-09-06T00:21:26.118Z,100209.34
2018-09-06T00:23:56.351Z,100213.73
2018-09-06T00:26:26.451Z,100209.74
2018-09-06T00:28:56.232Z,100203.44
2018-09-06T00:31:26.583Z,100211.52
2018-09-06T00:33:56.402Z,100208.56
2018-09-06T00:36:26.201Z,100210.80
2018-09-06T00:38:56.231Z,100213.97
2018-09-06T00:41:26.058Z,100217.02
2018-09-06T00:43:56.071Z,100221.23
2018-09-06T00:46:26.203Z,100215.94
2018-09-06T00:48:56.135Z,100214.44
2018-09-06T00:51:26.765Z,100210.11
2018-09-06T00:53:56.562Z,100212.98
2018-09-06T00:56:26.560Z,100203.80
2018-09-06T00:58:56.376Z,100205.83
2018-09-06T01:01:26.182Z,100206.52
2018-09-06T01:03:56.682Z,100204.55
2018-09-06T01:06:26.557Z,100201.55
2018-09-06T01:08:56.343Z,100196.08
2018-09-06T01:11:26.294Z,100192.94
2018-09-06T01:13:56.410Z,100197.64
2018-09-06T01:16:26.385Z,100195.98
2018-09-06T01:18:56.209Z,100196.67
2018-09-06T01:21:26.036Z,100201.38
2018-09-06T01:23:56.547Z,100198.58
2018-09-06T01:26:26.340Z,100188.42
2018-09-06T01:28:56.138Z,100199.81
2018-09-06T01:31:26.317Z,100192.16
2018-09-06T01:33:56.222Z,100195.52
2018-09-06T01:36:30.934Z,100195.53
2018-09-06T01:39:01.002Z,100196.22
2018-09-06T01:41:31.171Z,100195.58
2018-09-06T01:44:01.252Z,100195.13
2018-09-06T01:46:31.893Z,100201.01
2018-09-06T01:49:02.028Z,100203.03
2018-09-06T01:51:32.901Z,100204.90
2018-09-06T01:54:03.164Z,100199.92
2018-09-06T01:56:34.396Z,100207.28
2018-09-06T01:59:04.166Z,100198.06
2018-09-06T02:01:34.282Z,100200.68
2018-09-06T02:04:04.176Z,100198.37
2018-09-06T02:06:34.577Z,100191.17
2018-09-06T02:09:05.375Z,100196.02
2018-09-06T02:11:35.439Z,100190.85
2018-09-06T02:14:05.865Z,100191.86
2018-09-06T02:16:36.294Z,100191.20
2018-09-06T02:19:06.325Z,100193.75
2018-09-06T02:21:36.265Z,100194.44
2018-09-06T02:24:06.110Z,100190.11
2018-09-06T02:26:35.904Z,100188.12
2018-09-06T02:29:05.785Z,100186.95
2018-09-06T02:31:35.548Z,100184.81
2018-09-06T02:34:06.083Z,100182.50
2018-09-06T02:36:35.818Z,100188.33
2018-09-06T02:39:07.491Z,100195.52
2018-09-06T02:41:37.810Z,100187.34
2018-09-06T02:44:07.840Z,100183.34
2018-09-06T02:46:37.958Z,100183.70
2018-09-06T02:49:07.999Z,100180.55
2018-09-06T02:51:37.907Z,100177.55
2018-09-06T02:54:08.829Z,100174.89
2018-09-06T02:56:40.238Z,100174.89
2018-09-06T02:59:11.042Z,100174.56
2018-09-06T03:01:42.006Z,100178.73
2018-09-06T03:04:13.814Z,100177.09
2018-09-06T03:06:44.209Z,100175.64
2018-09-06T03:09:14.965Z,100176.32
2018-09-06T03:11:54.229Z,100178.66
2018-09-06T03:14:24.164Z,100176.67
2018-09-06T03:16:54.017Z,100172.02
2018-09-06T03:19:23.901Z,100179.70
2018-09-06T03:21:53.716Z,100175.38
2018-09-06T03:24:23.877Z,100179.05
2018-09-06T03:26:53.737Z,100176.05
2018-09-06T03:29:23.996Z,100177.39
2018-09-06T03:31:53.812Z,100174.40
2018-09-06T03:34:24.217Z,100175.08
2018-09-06T03:36:55.081Z,100181.75
2018-09-06T03:39:25.967Z,100147.16
2018-09-06T03:41:57.022Z,100177.09
2018-09-06T03:44:27.837Z,100177.58
2018-09-06T03:46:59.220Z,100181.78
2018-09-06T03:49:29.985Z,100174.09
2018-09-06T03:52:01.077Z,100180.45
2018-09-06T03:54:32.359Z,100178.09
2018-09-06T03:57:03.144Z,100187.95
2018-09-06T03:59:33.889Z,100192.08
2018-09-06T04:02:05.226Z,100188.11
2018-09-06T04:04:35.980Z,100191.78
2018-09-06T04:07:08.057Z,100192.30
2018-09-06T04:09:38.365Z,100187.81
2018-09-06T04:12:09.135Z,100184.82
2018-09-06T04:14:39.867Z,100179.35
2018-09-06T04:17:11.329Z,100181.50
2018-09-06T04:19:41.084Z,100186.50
2018-09-06T04:22:11.966Z,100181.17
2018-09-06T04:24:43.318Z,100184.84
2018-09-06T04:27:14.092Z,100189.85
2018-09-06T04:29:45.197Z,100183.40
2018-09-06T04:32:15.997Z,100182.20
2018-09-06T04:34:46.984Z,100181.72
2018-09-06T04:37:17.801Z,100180.87
2018-09-06T04:39:51.807Z,100178.20
2018-09-06T04:42:21.591Z,100179.73
2018-09-06T04:44:51.410Z,100177.22
2018-09-06T04:47:22.064Z,100179.21
2018-09-06T04:49:52.989Z,100176.55
2018-09-06T04:52:24.270Z,100182.53
2018-09-06T04:54:56.119Z,100187.86
2018-09-06T04:57:26.877Z,100186.86
2018-09-06T04:59:57.049Z,100186.17
2018-09-06T05:02:28.159Z,100184.84
2018-09-06T05:04:58.956Z,100181.50
2018-09-06T05:07:29.990Z,100180.81
2018-09-06T05:10:00.745Z,100171.67
2018-09-06T05:12:32.411Z,100181.45
2018-09-06T05:15:03.208Z,100191.27
2018-09-06T05:17:34.274Z,100187.44
2018-09-06T05:20:05.522Z,100182.78
2018-09-06T05:22:36.000Z,100188.77
2018-09-06T05:25:07.540Z,100194.43
2018-09-06T05:27:38.318Z,100190.11
2018-09-06T05:30:09.176Z,100191.08
2018-09-06T05:32:40.090Z,100194.05
2018-09-06T05:35:10.948Z,100190.50
2018-09-06T05:37:42.084Z,100195.81
2018-09-06T05:40:12.950Z,100195.78
2018-09-06T05:42:44.341Z,100198.61
2018-09-06T05:45:15.045Z,100205.05
2018-09-06T05:47:49.955Z,100203.88
2018-09-06T05:50:19.704Z,100202.52
2018-09-06T05:52:50.025Z,100201.63
2018-09-06T05:55:19.895Z,100199.45
2018-09-06T05:57:49.745Z,100203.42
2018-09-06T06:00:26.199Z,100208.72
2018-09-06T06:02:57.441Z,100206.83
2018-09-06T06:05:27.574Z,100209.30
2018-09-06T06:08:08.241Z,100207.73
2018-09-06T06:10:40.025Z,100138.02
2018-09-06T06:13:19.502Z,100214.13
2018-09-06T06:15:49.567Z,100206.23
2018-09-06T06:18:19.493Z,100209.22
2018-09-06T06:20:49.280Z,100209.11
2018-09-06T06:23:19.084Z,100206.99
2018-09-06T06:25:49.558Z,100202.72
2018-09-06T06:28:19.501Z,100199.91
2018-09-06T06:30:49.801Z,100198.66
2018-09-06T06:33:19.855Z,100200.27
2018-09-06T06:35:50.020Z,100161.12
2018-09-06T06:38:20.245Z,100198.27
2018-09-06T06:40:50.625Z,100197.19
2018-09-06T06:43:20.751Z,100197.45
2018-09-06T06:45:50.851Z,100190.00
2018-09-06T06:48:20.674Z,100198.27
2018-09-06T06:50:50.744Z,100201.70
2018-09-06T06:53:20.514Z,100204.62
2018-09-06T06:55:51.018Z,100201.06
2018-09-06T06:58:20.824Z,100198.88
2018-09-06T07:00:50.667Z,100199.97
2018-09-06T07:03:20.648Z,100200.47
2018-09-06T07:05:50.457Z,100203.22
2018-09-06T07:08:20.402Z,100203.39
2018-09-06T07:10:50.788Z,100202.33
2018-09-06T07:13:20.658Z,100197.84
2018-09-06T07:15:51.229Z,100197.55
2018-09-06T07:18:22.518Z,100194.01
2018-09-06T07:20:53.179Z,100183.61
2018-09-06T07:23:24.114Z,100192.69
2018-09-06T07:25:55.009Z,100184.88
2018-09-06T07:28:25.948Z,100183.05
2018-09-06T07:30:56.907Z,100185.27
2018-09-06T07:33:28.324Z,100184.62
2018-09-06T07:35:59.095Z,100182.87
2018-09-06T07:38:30.279Z,100178.78
2018-09-06T07:41:01.105Z,100184.36
2018-09-06T07:43:32.090Z,100182.84
2018-09-06T07:46:03.001Z,100178.81
2018-09-06T07:48:34.034Z,100183.06
2018-09-06T07:51:04.860Z,100178.63
2018-09-06T07:53:38.065Z,100178.30
2018-09-06T07:56:08.177Z,100177.55
2018-09-06T07:58:38.112Z,100174.09
2018-09-06T08:01:08.936Z,100177.34
2018-09-06T08:03:40.092Z,100169.76
2018-09-06T08:06:11.055Z,100171.70
2018-09-06T08:08:42.021Z,100170.67
2018-09-06T08:11:12.915Z,100168.56
2018-09-06T08:13:44.246Z,100171.00
2018-09-06T08:16:15.186Z,100173.44
2018-09-06T08:18:46.124Z,100170.97
2018-09-06T08:21:16.878Z,100171.91
2018-09-06T08:23:48.685Z,100175.61
2018-09-06T08:26:19.145Z,100175.94
2018-09-06T08:28:50.138Z,100171.30
2018-09-06T08:31:21.922Z,100172.20
2018-09-06T08:33:52.335Z,100172.83
2018-09-06T08:36:23.141Z,100164.80
2018-09-06T08:38:53.864Z,100159.76
2018-09-06T08:41:26.491Z,100157.05
2018-09-06T08:43:56.279Z,100153.06
2018-09-06T08:46:27.079Z,100155.97
2018-09-06T08:48:57.917Z,100156.67
2018-09-06T08:51:28.743Z,100149.72
2018-09-06T08:54:00.220Z,100149.81
2018-09-06T08:56:31.059Z,100148.59
2018-09-06T08:59:03.066Z,100143.55
2018-09-06T09:01:37.728Z,100140.91
2018-09-06T09:04:08.068Z,100145.63
2018-09-06T09:06:38.657Z,100141.62
2018-09-06T09:09:11.032Z,100141.50
2018-09-06T09:11:41.004Z,100130.98
2018-09-06T09:14:11.335Z,100133.19
2018-09-06T09:16:41.228Z,100132.95
2018-09-06T09:19:14.376Z,100128.37
2018-09-06T09:21:44.982Z,100128.03
2018-09-06T09:24:14.972Z,100130.17
2018-09-06T09:26:45.004Z,100121.69
2018-09-06T09:29:14.886Z,100123.74
2018-09-06T09:31:45.715Z,100123.92
2018-09-06T09:34:16.204Z,100115.66
2018-09-06T09:36:47.044Z,100116.61
2018-09-06T09:39:17.811Z,100109.17
2018-09-06T09:41:49.319Z,100109.43
2018-09-06T09:44:20.957Z,100109.43
2018-09-06T09:49:21.428Z,100107.47
2018-09-06T09:51:52.865Z,100103.45
2018-09-06T09:54:24.019Z,100104.73
2018-09-06T09:56:55.542Z,100095.15
2018-09-06T09:59:26.138Z,100092.31
2018-09-06T10:02:01.831Z,100090.98
2018-09-06T10:04:40.774Z,100090.22
2018-09-06T10:07:15.443Z,100084.11
2018-09-06T10:09:45.765Z,100084.80
2018-09-06T10:12:16.079Z,100079.08
2018-09-06T10:14:46.594Z,100073.73
2018-09-06T10:17:16.652Z,100068.45
2018-09-06T10:19:47.017Z,100068.68
2018-09-06T10:22:16.813Z,100071.23
2018-09-06T10:24:46.719Z,100068.45
2018-09-06T10:27:16.795Z,100067.52
2018-09-06T10:29:46.619Z,100055.47
2018-09-06T10:32:16.583Z,100057.17
2018-09-06T10:34:46.462Z,100048.00
2018-09-06T10:37:16.818Z,100040.80
2018-09-06T10:39:46.897Z,100031.75
2018-09-06T10:42:16.721Z,100040.48
2018-09-06T10:44:46.531Z,100037.10
2018-09-06T10:47:16.322Z,100035.93
2018-09-06T10:49:46.079Z,100035.30
2018-09-06T10:52:16.035Z,100047.02
2018-09-06T10:54:46.751Z,100039.58
2018-09-06T10:57:18.179Z,100027.64
2018-09-06T10:59:48.920Z,100026.18
2018-09-06T11:02:20.086Z,100019.45
2018-09-06T11:04:50.987Z,100019.22
2018-09-06T11:07:22.040Z,100012.45
2018-09-06T11:09:52.891Z,100021.81
2018-09-06T11:12:23.898Z,100013.70
2018-09-06T11:14:54.769Z,100011.43
2018-09-06T11:17:25.821Z,100004.09
2018-09-06T11:19:56.693Z,100009.27
2018-09-06T11:22:28.271Z,100011.41
2018-09-06T11:24:59.169Z,100007.99
2018-09-06T11:27:30.123Z,100010.44
2018-09-06T11:30:01.114Z,100004.49
2018-09-06T11:32:31.867Z,100003.41
2018-09-06T11:35:03.047Z,100001.48
2018-09-06T11:37:33.906Z,100003.13
2018-09-06T11:40:03.884Z,100004.00
2018-09-06T11:42:34.861Z,99992.67
2018-09-06T11:45:07.886Z,99998.75
2018-09-06T11:47:37.737Z,100003.36
2018-09-06T11:50:07.924Z,100003.08
2018-09-06T11:52:38.830Z,100004.55
2018-09-06T11:55:10.380Z,99992.68
2018-09-06T11:57:40.913Z,99998.32
2018-09-06T12:00:11.985Z,99992.44
2018-09-06T12:02:43.074Z,99993.52
2018-09-06T12:05:14.272Z,99992.20
2018-09-06T12:07:45.090Z,99988.63
2018-09-06T12:10:16.004Z,99984.87
2018-09-06T12:12:46.826Z,99977.48
2018-09-06T12:15:17.856Z,99974.30
2018-09-06T12:17:49.881Z,99977.33
2018-09-06T12:20:19.877Z,99982.05
2018-09-06T12:22:50.901Z,99971.66
2018-09-06T12:25:26.147Z,99968.12
2018-09-06T12:27:56.659Z,99963.20
2018-09-06T12:30:27.192Z,99960.94
2018-09-06T12:32:57.326Z,99953.98
2018-09-06T12:35:27.143Z,99953.90
2018-09-06T12:37:57.425Z,99946.86
2018-09-06T12:40:28.069Z,99944.71
2018-09-06T12:42:58.963Z,99942.37
2018-09-06T12:45:30.002Z,99949.27
2018-09-06T12:48:00.897Z,99948.45
2018-09-06T12:50:31.967Z,99946.78
2018-09-06T12:53:02.836Z,99945.63
2018-09-06T12:55:34.527Z,99950.27
2018-09-06T12:58:04.433Z,99948.63
2018-09-06T13:00:35.045Z,99943.53
2018-09-06T13:03:05.832Z,99937.10
2018-09-06T13:05:37.033Z,99935.27
2018-09-06T13:08:08.137Z,99929.70
2018-09-06T13:10:39.112Z,99921.95
2018-09-06T13:13:10.045Z,99920.09
2018-09-06T13:15:40.780Z,99916.16
2018-09-06T13:18:12.378Z,99917.25
2018-09-06T13:20:42.985Z,99913.95
2018-09-06T13:23:13.890Z,99912.46
2018-09-06T13:25:44.867Z,99908.25
2018-09-06T13:28:17.214Z,99911.27
2018-09-06T13:30:47.004Z,99905.59
2018-09-06T13:33:17.860Z,99899.80
2018-09-06T13:35:49.180Z,99894.25
2018-09-06T13:38:19.969Z,99893.89
2018-09-06T13:40:50.908Z,99896.74
2018-09-06T13:43:21.785Z,99886.91
2018-09-06T13:45:53.229Z,99888.53
2018-09-06T13:48:24.163Z,99878.55
2018-09-06T13:50:55.057Z,99886.06
2018-09-06T13:53:26.835Z,99884.55
2018-09-06T13:55:56.927Z,99882.66
2018-09-06T13:58:28.528Z,99882.25
2018-09-06T14:00:59.092Z,99877.07
2018-09-06T14:03:29.938Z,99872.50
2018-09-06T14:06:01.585Z,99874.13
2018-09-06T14:08:32.250Z,99872.97
2018-09-06T14:11:03.090Z,99872.78
2018-09-06T14:13:34.341Z,99879.20
2018-09-06T14:16:05.269Z,99860.25
2018-09-06T14:18:36.293Z,99867.52
2018-09-06T14:21:07.090Z,99863.62
2018-09-06T14:23:37.889Z,99860.92
2018-09-06T14:26:09.228Z,99857.38
2018-09-06T14:28:40.264Z,99857.66
2018-09-06T14:31:11.022Z,99856.27
2018-09-06T14:33:42.010Z,99853.13
2018-09-06T14:36:12.706Z,99850.27
2018-09-06T14:38:44.194Z,99849.03
2018-09-06T14:41:14.985Z,99848.31
2018-09-06T14:43:45.892Z,99848.70
2018-09-06T14:46:16.926Z,99847.94
2018-09-06T14:48:47.945Z,99842.46
2018-09-06T14:51:18.793Z,99839.88
2018-09-06T14:53:50.108Z,99835.08
2018-09-06T14:56:21.191Z,99845.31
2018-09-06T14:58:53.048Z,99839.47
2018-09-06T15:01:22.859Z,99840.41
2018-09-06T15:03:53.965Z,99842.67
2018-09-06T15:06:24.778Z,99843.26
2018-09-06T15:08:56.084Z,99843.34
2018-09-06T15:11:26.784Z,99837.09
2018-09-06T15:13:58.186Z,99841.78
2018-09-06T15:16:28.973Z,99836.89
2018-09-06T15:19:00.032Z,99834.73
2018-09-06T15:21:31.061Z,99840.50
2018-09-06T15:24:01.881Z,99839.16
2018-09-06T15:26:33.184Z,99837.27
2018-09-06T15:29:04.225Z,99834.27
2018-09-06T15:31:43.196Z,99833.73
2018-09-06T15:34:13.117Z,99832.38
2018-09-06T15:36:42.902Z,99826.08
2018-09-06T15:39:12.720Z,99822.53
2018-09-06T15:41:42.777Z,99820.08
2018-09-06T15:44:12.527Z,99820.34
2018-09-06T15:46:43.056Z,99822.25
2018-09-06T15:49:12.925Z,99813.52
2018-09-06T15:51:42.812Z,99815.44
2018-09-06T15:54:14.173Z,99809.42
2018-09-06T15:56:44.928Z,99813.02
2018-09-06T15:59:16.071Z,99815.17
2018-09-06T16:01:46.858Z,99818.73
2018-09-06T16:04:18.176Z,99811.66
2018-09-06T16:06:48.908Z,99810.56
2018-09-06T16:09:20.055Z,99807.55
2018-09-06T16:11:50.871Z,99806.46
2018-09-06T16:14:22.119Z,99809.45
2018-09-06T16:16:52.877Z,99809.73
2018-09-06T16:19:24.375Z,99809.47
2018-09-06T16:21:54.955Z,99804.57
2018-09-06T16:24:25.947Z,99814.63
2018-09-06T16:26:56.968Z,99815.72
2018-09-06T16:29:27.921Z,99811.85
2018-09-06T16:31:59.556Z,99812.95
2018-09-06T16:34:30.289Z,99814.31
2018-09-06T16:37:01.084Z,99818.66
2018-09-06T16:39:32.525Z,99815.38
2018-09-06T16:42:03.265Z,99810.18
2018-09-06T16:44:35.267Z,99811.26
2018-09-06T16:47:05.121Z,99811.78
2018-09-06T16:49:36.102Z,99812.02
2018-09-06T16:52:07.051Z,99812.34
2018-09-06T16:54:37.894Z,99810.06
2018-09-06T16:57:09.149Z,99807.02
2018-09-06T16:59:40.126Z,99802.34
2018-09-06T17:02:10.957Z,99796.23
2018-09-06T17:04:42.159Z,99806.81
2018-09-06T17:07:13.101Z,99808.91
2018-09-06T17:09:44.462Z,99813.17
2018-09-06T17:12:15.322Z,99811.47
2018-09-06T17:14:46.481Z,99812.48
2018-09-06T17:17:17.343Z,99810.77
2018-09-06T17:19:48.952Z,99812.04
2018-09-06T17:22:18.802Z,99811.88
2018-09-06T17:24:50.456Z,99807.68
2018-09-06T17:27:21.193Z,99816.84
2018-09-06T17:29:52.136Z,99807.44
2018-09-06T17:32:23.306Z,99806.02
2018-09-06T17:34:54.225Z,99815.45
2018-09-06T17:37:25.038Z,99821.83
2018-09-06T17:39:56.098Z,99821.99
2018-09-06T17:42:27.844Z,99823.27
2018-09-06T17:44:58.434Z,99821.77
2018-09-06T17:47:29.118Z,99825.42
2018-09-06T17:50:00.256Z,99823.34
2018-09-06T17:52:31.197Z,99823.70
2018-09-06T17:55:02.037Z,99826.81
2018-09-06T17:57:33.185Z,99824.19
2018-09-06T18:00:04.202Z,99834.14
2018-09-06T18:02:35.430Z,99830.44
2018-09-06T18:05:06.138Z,99837.34
2018-09-06T18:07:37.107Z,99833.98
2018-09-06T18:10:08.014Z,99832.45
2018-09-06T18:12:39.336Z,99832.78
2018-09-06T18:15:11.140Z,99842.91
2018-09-06T18:17:41.729Z,99844.40
2018-09-06T18:20:11.950Z,99846.21
2018-09-06T18:22:44.375Z,99846.05
2018-09-06T18:25:14.534Z,99847.57
2018-09-06T18:27:45.188Z,99846.61
2018-09-06T18:30:16.468Z,99847.00
2018-09-06T18:32:47.285Z,99847.67
2018-09-06T18:35:18.533Z,99840.91
2018-09-06T18:37:49.358Z,99844.20
2018-09-06T18:40:20.180Z,99836.19
2018-09-06T18:42:51.013Z,99836.33
2018-09-06T18:45:22.199Z,99840.80
2018-09-06T18:47:53.270Z,99840.36
2018-09-06T18:50:24.162Z,99841.23
2018-09-06T18:52:55.058Z,99841.85
2018-09-06T18:55:26.304Z,99842.98
2018-09-06T18:57:57.134Z,99842.58
2018-09-06T19:00:28.097Z,99843.15
2018-09-06T19:02:59.007Z,99847.84
2018-09-06T19:05:30.257Z,99850.89
2018-09-06T19:08:01.415Z,99846.42
2018-09-06T19:10:32.190Z,99848.20
2018-09-06T19:13:03.222Z,99836.73
2018-09-06T19:15:34.319Z,99845.47
2018-09-06T19:18:05.298Z,99840.70
2018-09-06T19:20:36.118Z,99832.44
2018-09-06T19:23:07.273Z,99839.53
2018-09-06T19:25:38.157Z,99848.03
2018-09-06T19:28:09.157Z,99840.87
2018-09-06T19:30:40.085Z,99840.44
2018-09-06T19:33:11.680Z,99832.52
2018-09-06T19:35:42.186Z,99839.09
2018-09-06T19:38:13.156Z,99846.23
2018-09-06T19:40:46.599Z,99837.72
2018-09-06T19:43:17.056Z,99841.84
2018-09-06T19:45:46.841Z,99842.16
2018-09-06T19:48:17.125Z,99837.67
2018-09-06T19:50:48.069Z,99843.97
2018-09-06T19:53:18.894Z,99836.50
2018-09-06T19:55:49.934Z,99839.02
2018-09-06T19:58:20.840Z,99839.11
2018-09-06T20:00:52.249Z,99834.19
2018-09-06T20:03:23.054Z,99829.91
2018-09-06T20:05:54.068Z,99831.11
2018-09-06T20:08:24.933Z,99824.43
2018-09-06T20:10:56.042Z,99822.73
2018-09-06T20:13:27.073Z,99827.66
2018-09-06T20:15:57.866Z,99828.76
2018-09-06T20:18:29.288Z,99826.66
2018-09-06T20:20:59.966Z,99833.02
2018-09-06T20:23:30.966Z,99827.55
2018-09-06T20:26:03.545Z,99832.87
2018-09-06T20:28:33.795Z,99843.23
2018-09-06T20:31:03.995Z,99840.14
2018-09-06T20:33:35.162Z,99837.59
2018-09-06T20:36:06.098Z,99837.94
2018-09-06T20:38:36.970Z,99832.20
2018-09-06T20:41:08.046Z,99829.11
2018-09-06T20:43:39.091Z,99838.45
2018-09-06T20:46:10.545Z,99832.91
2018-09-06T20:48:41.055Z,99823.64
2018-09-06T20:51:11.969Z,99834.23
2018-09-06T20:53:42.833Z,99830.84
2018-09-06T20:56:14.290Z,99826.84
2018-09-06T20:58:45.044Z,99822.64
2018-09-06T21:01:16.043Z,99822.27
2018-09-06T21:03:46.861Z,99823.95
2018-09-06T21:06:18.478Z,99821.83
2018-09-06T21:08:49.100Z,99818.36
2018-09-06T21:11:20.850Z,99819.23
2018-09-06T21:13:50.759Z,99815.53
2018-09-06T21:16:22.302Z,99814.21
2018-09-06T21:18:53.433Z,99807.86
2018-09-06T21:21:24.140Z,99811.47
2018-09-06T21:23:55.087Z,99811.41
2018-09-06T21:26:25.996Z,99810.39
2018-09-06T21:28:57.017Z,99808.66
2018-09-06T21:31:27.730Z,99811.78
2018-09-06T21:33:58.231Z,99812.71
2018-09-06T21:36:29.130Z,99818.73
2018-09-06T21:39:00.074Z,99815.64
2018-09-06T21:41:30.877Z,99812.24
2018-09-06T21:44:02.129Z,99813.20
2018-09-06T21:46:33.033Z,99819.20
2018-09-06T21:49:03.983Z,99813.03
2018-09-06T21:51:34.764Z,99814.19
2018-09-06T21:54:06.323Z,99812.16
2018-09-06T21:56:37.017Z,99801.43
2018-09-06T21:59:07.942Z,99811.47
2018-09-06T22:01:38.875Z,99811.02
2018-09-06T22:04:10.486Z,99813.62
2018-09-06T22:06:41.397Z,99812.16
2018-09-06T22:09:13.575Z,99810.25
2018-09-06T22:11:43.451Z,99813.88
2018-09-06T22:14:14.000Z,99818.34
2018-09-06T22:16:45.345Z,99807.52
2018-09-06T22:19:16.022Z,99813.70
2018-09-06T22:21:46.984Z,99817.38
2018-09-06T22:24:17.794Z,99813.36
2018-09-06T22:26:49.332Z,99814.82
2018-09-06T22:29:20.156Z,99815.12
2018-09-06T22:31:50.907Z,99818.03
2018-09-06T22:34:20.810Z,99808.23
2018-09-06T22:36:52.505Z,99817.72
2018-09-06T22:39:23.080Z,99813.27
2018-09-06T22:41:54.045Z,99810.50
2018-09-06T22:44:24.967Z,99813.06
2018-09-06T22:46:56.503Z,99808.13
2018-09-06T22:49:27.077Z,99812.25
2018-09-06T22:51:58.127Z,99815.95
2018-09-06T22:54:28.948Z,99805.88
2018-09-06T22:57:00.216Z,99803.08
2018-09-06T22:59:31.220Z,99802.37
2018-09-06T23:02:02.443Z,99801.13
2018-09-06T23:04:33.007Z,99804.72
2018-09-06T23:07:04.333Z,99800.77
2018-09-06T23:09:35.281Z,99789.02
2018-09-06T23:12:06.381Z,99801.08
2018-09-06T23:14:37.254Z,99802.64
2018-09-06T23:17:08.469Z,99801.09
2018-09-06T23:19:39.063Z,99802.84
2018-09-06T23:22:09.928Z,99806.55
2018-09-06T23:24:41.508Z,99797.77
2018-09-06T23:27:12.064Z,99808.39
2018-09-06T23:29:43.190Z,99806.30
2018-09-06T23:32:13.127Z,99810.72
2018-09-06T23:34:44.232Z,99807.92
2018-09-06T23:37:15.521Z,99807.83
2018-09-06T23:39:46.357Z,99810.07
2018-09-06T23:42:17.073Z,99813.06
2018-09-06T23:44:48.097Z,99818.30
2018-09-06T23:47:18.940Z,99808.52
2018-09-06T23:49:50.447Z,99813.03
2018-09-06T23:52:21.871Z,99809.02
2018-09-06T23:54:51.941Z,99811.06
2018-09-06T23:57:22.930Z,99803.63
2018-09-06T23:59:55.124Z,99804.23
